Time;durP1;ratioP1;P1;durP2;ratioP2;P2;SDS_P1;SDS_P2;PMS_P1;PMS_P2;Temp;Humidity;BMP_temperature;BMP_pressure;BME280_temperature;BME280_humidity;BME280_pressure;Samples;Min_cycle;Max_cycle;Signal;HPM_P1;HPM_P2
2021/04/07 00:02:24;;;;;;;;;;;16.00;34.00;;;;;;5052526;28;77503;-64
2021/04/07 00:04:59;;;;;;;;;;;16.00;34.10;;;;;;5052141;28;75399;-65
2021/04/07 00:07:25;;;;;;;;;;;15.90;34.10;;;;;;5052585;28;75831;-66
2021/04/07 00:09:51;;;;;;;;;;;15.90;34.20;;;;;;5054509;28;74370;-64
2021/04/07 00:12:17;;;;;;;;;;;15.90;34.40;;;;;;5052223;28;75319;-66
2021/04/07 00:14:43;;;;;;;;;;;15.80;34.70;;;;;;5054046;28;75705;-63
2021/04/07 00:17:08;;;;;;;;;;;15.90;34.60;;;;;;5054473;28;75464;-66
2021/04/07 00:19:34;;;;;;;;;;;15.80;34.60;;;;;;5054083;28;75270;-71
2021/04/07 00:21:59;;;;;;;;;;;15.70;34.80;;;;;;5054427;28;75230;-65
2021/04/07 00:24:25;;;;;;;;;;;15.60;35.00;;;;;;5052813;27;77966;-63
2021/04/07 00:26:51;;;;;;;;;;;15.60;35.10;;;;;;5053738;28;75109;-66
2021/04/07 00:29:16;;;;;;;;;;;15.50;35.20;;;;;;5054079;28;75397;-66
2021/04/07 00:31:42;;;;;;;;;;;15.50;35.40;;;;;;5052032;28;76831;-66
2021/04/07 00:34:07;;;;;;;;;;;15.40;35.60;;;;;;5053991;28;75293;-64
2021/04/07 00:36:33;;;;;;;;;;;15.40;35.80;;;;;;5052307;28;76777;-65
2021/04/07 00:38:58;;;;;;;;;;;15.40;35.80;;;;;;5054194;28;74999;-67
2021/04/07 00:41:24;;;;;;;;;;;15.40;35.80;;;;;;5053768;28;75046;-64
2021/04/07 00:43:50;;;;;;;;;;;15.40;35.50;;;;;;5053735;28;75412;-63
2021/04/07 00:46:15;;;;;;;;;;;15.30;36.60;;;;;;5053760;27;74509;-67
2021/04/07 00:48:41;;;;;;;;;;;15.30;36.20;;;;;;5051802;28;75767;-63
2021/04/07 00:51:06;;;;;;;;;;;15.20;36.10;;;;;;5052762;28;78201;-64
2021/04/07 00:53:32;;;;;;;;;;;15.10;36.30;;;;;;5085596;27;76062;-65
2021/04/07 00:55:58;;;;;;;;;;;15.10;36.50;;;;;;5051610;28;76837;-64
2021/04/07 00:58:24;;;;;;;;;;;15.10;36.40;;;;;;5053880;28;74494;-63
2021/04/07 01:00:49;;;;;;;;;;;15.00;36.40;;;;;;5053503;28;75054;-66
2021/04/07 01:03:15;;;;;;;;;;;15.00;36.50;;;;;;5051738;28;76460;-66
2021/04/07 01:05:41;;;;;;;;;;;14.90;36.60;;;;;;5053465;28;75059;-67
2021/04/07 01:08:06;;;;;;;;;;;14.80;36.90;;;;;;5051788;28;78646;-67
2021/04/07 01:10:32;;;;;;;;;;;14.70;37.00;;;;;;5051475;28;75342;-70
2021/04/07 01:12:58;;;;;;;;;;;14.70;37.10;;;;;;5051559;28;75751;-70
2021/04/07 01:15:24;;;;;;;;;;;14.60;36.80;;;;;;5053154;28;74941;-64
2021/04/07 01:17:49;;;;;;;;;;;14.50;36.90;;;;;;5052982;28;74502;-65
2021/04/07 01:20:17;;;;;;;;;;;14.50;37.50;;;;;;5054147;28;74541;-66
2021/04/07 01:22:46;;;;;;;;;;;14.40;37.60;;;;;;5051739;28;75455;-65
2021/04/07 01:25:12;;;;;;;;;;;14.40;37.60;;;;;;5053262;28;75242;-65
2021/04/07 01:27:38;;;;;;;;;;;14.30;37.80;;;;;;5051226;28;77246;-65
2021/04/07 01:30:08;;;;;;;;;;;14.20;37.60;;;;;;5052979;28;74957;-68
2021/04/07 01:32:35;;;;;;;;;;;14.10;38.00;;;;;;5051547;28;77524;-66
2021/04/07 01:35:01;;;;;;;;;;;14.00;38.10;;;;;;5051219;28;77139;-68
2021/04/07 01:37:27;;;;;;;;;;;14.00;38.10;;;;;;5051297;27;74502;-68
2021/04/07 01:39:52;;;;;;;;;;;13.90;38.00;;;;;;5052993;28;75699;-66
2021/04/07 01:42:18;;;;;;;;;;;13.90;38.10;;;;;;5051213;28;77266;-67
2021/04/07 01:44:44;;;;;;;;;;;13.90;38.20;;;;;;5052148;28;74711;-66
2021/04/07 01:47:10;;;;;;;;;;;13.80;38.20;;;;;;5052593;28;75444;-65
2021/04/07 01:49:36;;;;;;;;;;;13.70;38.50;;;;;;5051543;28;74657;-66
2021/04/07 01:52:01;;;;;;;;;;;13.70;38.40;;;;;;5068009;27;75549;-66
2021/04/07 01:54:27;;;;;;;;;;;13.70;38.40;;;;;;5053045;28;75020;-66
2021/04/07 01:56:52;;;;;;;;;;;13.70;38.40;;;;;;5051662;28;74559;-64
2021/04/07 01:59:19;;;;;;;;;;;13.60;38.40;;;;;;5052802;28;74528;-69
2021/04/07 02:01:45;;;;;;;;;;;13.60;38.70;;;;;;5051055;28;77157;-66
2021/04/07 02:04:12;;;;;;;;;;;13.60;38.70;;;;;;5050595;28;75562;-66
2021/04/07 02:06:37;;;;;;;;;;;13.50;38.40;;;;;;5050562;28;77708;-66
2021/04/07 02:09:05;;;;;;;;;;;13.50;38.70;;;;;;5050814;28;75379;-63
2021/04/07 02:11:30;;;;;;;;;;;13.40;38.80;;;;;;5050736;28;78046;-64
2021/04/07 02:13:56;;;;;;;;;;;13.40;38.80;;;;;;5050538;28;75639;-63
2021/04/07 02:16:21;;;;;;;;;;;13.30;38.70;;;;;;5052339;28;75151;-64
2021/04/07 02:18:47;;;;;;;;;;;13.30;39.00;;;;;;5053508;28;75538;-64
2021/04/07 02:21:13;;;;;;;;;;;13.20;39.10;;;;;;5052831;28;74546;-65
2021/04/07 02:23:39;;;;;;;;;;;13.10;39.10;;;;;;5050638;28;75553;-65
2021/04/07 02:26:05;;;;;;;;;;;13.10;39.20;;;;;;5050099;28;78524;-64
2021/04/07 02:28:31;;;;;;;;;;;13.00;39.20;;;;;;5052105;28;75674;-66
2021/04/07 02:30:56;;;;;;;;;;;13.00;39.20;;;;;;5052083;28;75171;-68
2021/04/07 02:33:22;;;;;;;;;;;12.90;39.30;;;;;;5052347;28;75091;-64
2021/04/07 02:35:48;;;;;;;;;;;12.80;39.50;;;;;;5052616;28;74350;-65
2021/04/07 02:38:13;;;;;;;;;;;12.80;39.50;;;;;;5052150;28;74567;-65
2021/04/07 02:40:39;;;;;;;;;;;12.70;39.70;;;;;;5050740;28;78293;-66
2021/04/07 02:43:05;;;;;;;;;;;12.70;39.90;;;;;;5050004;28;76807;-66
2021/04/07 02:45:30;;;;;;;;;;;12.50;39.60;;;;;;5050453;28;75406;-64
2021/04/07 02:47:56;;;;;;;;;;;12.50;39.70;;;;;;5052340;28;75597;-65
2021/04/07 02:50:22;;;;;;;;;;;12.40;39.70;;;;;;5050162;28;77399;-66
2021/04/07 02:52:47;;;;;;;;;;;12.40;39.60;;;;;;5052045;28;75210;-65
2021/04/07 02:55:13;;;;;;;;;;;12.40;39.60;;;;;;5051643;28;75153;-65
2021/04/07 02:57:39;;;;;;;;;;;12.30;39.60;;;;;;5051921;28;74560;-64
2021/04/07 03:00:05;;;;;;;;;;;12.20;39.70;;;;;;5050369;28;75433;-68
2021/04/07 03:02:31;;;;;;;;;;;12.20;39.70;;;;;;5051918;28;75161;-63
2021/04/07 03:04:57;;;;;;;;;;;12.20;39.70;;;;;;5051683;28;75169;-66
2021/04/07 03:07:23;;;;;;;;;;;12.10;39.80;;;;;;5051499;28;75177;-65
2021/04/07 03:09:49;;;;;;;;;;;12.10;39.60;;;;;;5054564;27;75140;-67
2021/04/07 03:12:15;;;;;;;;;;;12.00;39.70;;;;;;5055061;28;75990;-67
2021/04/07 03:14:40;;;;;;;;;;;12.00;39.50;;;;;;5087868;27;74627;-66
2021/04/07 03:17:06;;;;;;;;;;;11.90;39.50;;;;;;5053573;27;77122;-63
2021/04/07 03:19:31;;;;;;;;;;;11.90;39.50;;;;;;5055185;28;75387;-64
2021/04/07 03:21:57;;;;;;;;;;;11.80;39.40;;;;;;5055292;28;75303;-66
2021/04/07 03:24:23;;;;;;;;;;;11.80;39.50;;;;;;5053810;28;78497;-68
2021/04/07 03:26:49;;;;;;;;;;;11.80;39.40;;;;;;5053460;28;76525;-67
2021/04/07 03:29:14;;;;;;;;;;;11.80;39.30;;;;;;5053207;28;75470;-66
2021/04/07 03:31:40;;;;;;;;;;;11.80;39.20;;;;;;5070017;27;77063;-64
2021/04/07 03:34:05;;;;;;;;;;;11.80;39.20;;;;;;5055137;28;75126;-66
2021/04/07 03:36:31;;;;;;;;;;;11.80;39.30;;;;;;5054514;28;74747;-65
2021/04/07 03:38:57;;;;;;;;;;;11.80;39.20;;;;;;5053595;28;77246;-65
2021/04/07 03:41:22;;;;;;;;;;;11.80;39.10;;;;;;5052789;28;78187;-65
2021/04/07 03:43:48;;;;;;;;;;;11.80;38.90;;;;;;5052813;28;77432;-65
2021/04/07 03:46:15;;;;;;;;;;;11.70;38.70;;;;;;5054132;28;75140;-70
2021/04/07 03:48:41;;;;;;;;;;;11.80;38.60;;;;;;5052954;28;77651;-64
2021/04/07 03:51:06;;;;;;;;;;;11.70;38.70;;;;;;5054786;28;75623;-65
2021/04/07 03:53:32;;;;;;;;;;;11.70;38.90;;;;;;5052549;28;76052;-65
2021/04/07 03:55:58;;;;;;;;;;;11.60;38.70;;;;;;5054492;28;74488;-69
2021/04/07 03:58:23;;;;;;;;;;;11.60;38.60;;;;;;5052832;28;75516;-64
2021/04/07 04:00:49;;;;;;;;;;;11.50;38.70;;;;;;5054439;28;75201;-67
2021/04/07 04:03:15;;;;;;;;;;;11.50;38.70;;;;;;5054133;28;74663;-65
2021/04/07 04:05:41;;;;;;;;;;;11.50;38.70;;;;;;5053024;28;77046;-68
2021/04/07 04:08:06;;;;;;;;;;;11.50;38.40;;;;;;5054536;28;75052;-64
2021/04/07 04:10:33;;;;;;;;;;;11.40;38.50;;;;;;5052365;28;77613;-64
2021/04/07 04:12:58;;;;;;;;;;;11.40;38.70;;;;;;5054262;28;75261;-64
2021/04/07 04:15:24;;;;;;;;;;;11.40;38.70;;;;;;5052365;28;74663;-65
2021/04/07 04:17:50;;;;;;;;;;;11.40;38.60;;;;;;5054548;28;74918;-65
2021/04/07 04:20:16;;;;;;;;;;;11.40;38.60;;;;;;5053441;27;75148;-68
2021/04/07 04:22:42;;;;;;;;;;;11.40;38.30;;;;;;5054756;28;75277;-64
2021/04/07 04:25:10;;;;;;;;;;;11.30;38.30;;;;;;5053030;28;77972;-67
2021/04/07 04:27:35;;;;;;;;;;;11.20;38.30;;;;;;5052356;28;75324;-67
2021/04/07 04:30:03;;;;;;;;;;;11.20;38.60;;;;;;5054470;28;75114;-65
2021/04/07 04:32:28;;;;;;;;;;;11.10;38.40;;;;;;5054229;28;78092;-71
2021/04/07 04:34:54;;;;;;;;;;;11.10;38.20;;;;;;5086824;27;77670;-65
2021/04/07 04:37:19;;;;;;;;;;;11.00;38.30;;;;;;5054063;28;75286;-67
2021/04/07 04:39:45;;;;;;;;;;;11.00;38.40;;;;;;5052308;28;76898;-69
2021/04/07 04:42:11;;;;;;;;;;;11.00;38.40;;;;;;5053691;28;75193;-65
2021/04/07 04:44:36;;;;;;;;;;;11.00;38.30;;;;;;5053513;28;76166;-70
2021/04/07 04:47:02;;;;;;;;;;;10.90;38.30;;;;;;5053634;28;75432;-68
2021/04/07 04:49:27;;;;;;;;;;;10.90;38.40;;;;;;5053704;28;76297;-72
2021/04/07 04:51:53;;;;;;;;;;;10.80;38.40;;;;;;5053947;28;75157;-69
2021/04/07 04:54:18;;;;;;;;;;;10.80;38.50;;;;;;5053767;28;75254;-70
2021/04/07 04:56:44;;;;;;;;;;;10.80;38.40;;;;;;5068795;27;75887;-67
2021/04/07 04:59:10;;;;;;;;;;;10.80;38.50;;;;;;5053699;28;75053;-66
2021/04/07 05:01:35;;;;;;;;;;;10.70;38.50;;;;;;5053454;28;75207;-66
2021/04/07 05:04:05;;;;;;;;;;;10.70;38.60;;;;;;5053114;28;76228;-70
2021/04/07 05:06:31;;;;;;;;;;;10.70;38.50;;;;;;5052773;28;76419;-71
2021/04/07 05:08:57;;;;;;;;;;;10.70;38.40;;;;;;5053618;28;75287;-68
2021/04/07 05:11:22;;;;;;;;;;;10.70;38.20;;;;;;5053045;28;76254;-64
2021/04/07 05:13:48;;;;;;;;;;;10.70;38.30;;;;;;5051619;28;77664;-71
2021/04/07 05:16:13;;;;;;;;;;;10.60;38.30;;;;;;5053176;28;75265;-69
2021/04/07 05:18:39;;;;;;;;;;;10.60;38.20;;;;;;5053099;28;75556;-66
2021/04/07 05:21:05;;;;;;;;;;;10.60;38.00;;;;;;5053456;28;75136;-65
2021/04/07 05:23:30;;;;;;;;;;;10.50;38.10;;;;;;5052823;28;76226;-69
2021/04/07 05:25:56;;;;;;;;;;;10.50;38.30;;;;;;5085466;27;77327;-71
2021/04/07 05:28:21;;;;;;;;;;;10.50;38.20;;;;;;5052774;28;76276;-72
2021/04/07 05:31:02;;;;;;;;;;;10.50;38.30;;;;;;5051673;28;77398;-70
2021/04/07 05:33:32;;;;;;;;;;;10.40;38.30;;;;;;5050597;28;77466;-71
2021/04/07 05:35:59;;;;;;;;;;;10.40;38.30;;;;;;5044697;28;75401;-75
2021/04/07 05:38:24;;;;;;;;;;;10.40;38.40;;;;;;5047608;27;77274;-69
2021/04/07 05:40:54;;;;;;;;;;;10.40;38.40;;;;;;5038857;28;76243;-71
2021/04/07 05:43:20;;;;;;;;;;;10.40;38.20;;;;;;5039041;28;76926;-73
2021/04/07 05:45:46;;;;;;;;;;;10.40;38.10;;;;;;5039363;28;77032;-75
2021/04/07 05:48:12;;;;;;;;;;;10.30;38.20;;;;;;5042270;28;75687;-65
2021/04/07 05:50:38;;;;;;;;;;;10.30;38.20;;;;;;5040716;28;76633;-69
2021/04/07 05:53:04;;;;;;;;;;;10.20;38.30;;;;;;5038626;28;76731;-65
2021/04/07 05:55:29;;;;;;;;;;;10.10;38.30;;;;;;5039735;28;76565;-64
2021/04/07 05:58:02;;;;;;;;;;;10.10;38.40;;;;;;5039256;28;75254;-68
2021/04/07 06:00:28;;;;;;;;;;;10.10;38.50;;;;;;5038016;28;78058;-70
2021/04/07 06:02:54;;;;;;;;;;;10.20;38.70;;;;;;5039255;28;75537;-67
2021/04/07 06:05:20;;;;;;;;;;;10.20;38.30;;;;;;5037203;28;77069;-68
2021/04/07 06:07:46;;;;;;;;;;;10.20;38.50;;;;;;5040737;28;76361;-66
2021/04/07 06:10:12;;;;;;;;;;;10.10;38.50;;;;;;5037779;28;76695;-68
2021/04/07 06:12:38;;;;;;;;;;;10.10;38.50;;;;;;5039274;28;76776;-71
2021/04/07 06:15:04;;;;;;;;;;;10.10;38.50;;;;;;5039410;28;76076;-72
2021/04/07 06:17:30;;;;;;;;;;;10.00;38.60;;;;;;5038017;28;76397;-72
2021/04/07 06:19:55;;;;;;;;;;;10.00;38.50;;;;;;5038029;28;76692;-70
2021/04/07 06:22:21;;;;;;;;;;;9.90;38.70;;;;;;5039249;27;75717;-71
2021/04/07 06:24:47;;;;;;;;;;;10.00;38.90;;;;;;5039168;28;76027;-68
2021/04/07 06:27:12;;;;;;;;;;;10.00;38.60;;;;;;5037439;28;76415;-69
2021/04/07 06:29:38;;;;;;;;;;;10.10;38.50;;;;;;5037512;28;76654;-70
2021/04/07 06:32:03;;;;;;;;;;;10.10;38.50;;;;;;5039289;28;76451;-70
2021/04/07 06:34:29;;;;;;;;;;;10.20;38.40;;;;;;5037915;28;76946;-69
2021/04/07 06:36:55;;;;;;;;;;;10.20;38.30;;;;;;5038448;28;75270;-63
2021/04/07 06:39:20;;;;;;;;;;;10.30;38.10;;;;;;5037188;28;76113;-67
2021/04/07 06:41:46;;;;;;;;;;;10.40;38.10;;;;;;5038772;27;75737;-64
2021/04/07 06:44:12;;;;;;;;;;;10.40;37.80;;;;;;5038970;28;75845;-65
2021/04/07 06:46:38;;;;;;;;;;;10.50;37.70;;;;;;5040318;28;77422;-65
2021/04/07 06:49:03;;;;;;;;;;;10.50;37.70;;;;;;5042271;28;76822;-68
2021/04/07 06:51:31;;;;;;;;;;;10.60;37.70;;;;;;5040473;28;77492;-65
2021/04/07 06:53:58;;;;;;;;;;;10.60;37.80;;;;;;5042214;27;75905;-67
2021/04/07 06:56:23;;;;;;;;;;;10.70;37.60;;;;;;5041078;28;76491;-64
2021/04/07 06:58:49;;;;;;;;;;;10.80;37.40;;;;;;5040129;28;77214;-64
2021/04/07 07:01:15;;;;;;;;;;;10.80;37.10;;;;;;5042046;28;74759;-64
2021/04/07 07:03:41;;;;;;;;;;;10.90;37.10;;;;;;5040353;28;76112;-63
2021/04/07 07:06:06;;;;;;;;;;;10.90;37.00;;;;;;5040169;28;75462;-65
2021/04/07 07:08:32;;;;;;;;;;;10.90;36.90;;;;;;5039812;28;77169;-63
2021/04/07 07:11:08;;;;;;;;;;;10.90;37.00;;;;;;5041836;28;75796;-66
2021/04/07 07:13:34;;;;;;;;;;;10.90;36.90;;;;;;5039723;27;77054;-64
2021/04/07 07:16:00;;;;;;;;;;;10.90;37.10;;;;;;5039699;28;78396;-66
2021/04/07 07:18:27;;;;;;;;;;;10.90;37.00;;;;;;5041959;28;76580;-65
2021/04/07 07:20:53;;;;;;;;;;;11.00;36.90;;;;;;5040201;28;75985;-64
2021/04/07 07:23:24;;;;;;;;;;;11.10;37.00;;;;;;5042144;28;76515;-63
2021/04/07 07:26:07;;;;;;;;;;;11.10;36.90;;;;;;5039627;28;76399;-65
2021/04/07 07:28:41;;;;;;;;;;;11.10;36.90;;;;;;5022990;28;76408;-63
2021/04/07 07:31:16;;;;;;;;;;;11.10;37.00;;;;;;5039568;28;76095;-65
2021/04/07 07:33:41;;;;;;;;;;;11.20;36.90;;;;;;5040788;28;75993;-65
2021/04/07 07:36:08;;;;;;;;;;;11.20;36.80;;;;;;5037994;28;77440;-67
2021/04/07 07:38:34;;;;;;;;;;;11.30;36.60;;;;;;5039640;28;76138;-67
2021/04/07 07:41:02;;;;;;;;;;;11.30;37.10;;;;;;5039917;28;77112;-66
2021/04/07 07:43:28;;;;;;;;;;;11.40;37.20;;;;;;5039421;28;78465;-66
2021/04/07 07:45:53;;;;;;;;;;;11.40;36.90;;;;;;5041350;27;76176;-65
2021/04/07 07:48:21;;;;;;;;;;;11.40;36.60;;;;;;5040131;28;77191;-64
2021/04/07 07:50:47;;;;;;;;;;;11.50;36.50;;;;;;5042953;28;75777;-68
2021/04/07 07:53:16;;;;;;;;;;;11.60;36.40;;;;;;5041109;27;77289;-65
2021/04/07 07:55:42;;;;;;;;;;;11.70;36.30;;;;;;5038185;27;75954;-64
2021/04/07 07:58:08;;;;;;;;;;;11.80;36.20;;;;;;5039512;28;77569;-65
2021/04/07 08:00:33;;;;;;;;;;;11.80;36.10;;;;;;5039474;28;76312;-64
2021/04/07 08:03:15;;;;;;;;;;;11.90;36.00;;;;;;5040952;28;76728;-66
2021/04/07 08:05:44;;;;;;;;;;;11.90;35.90;;;;;;5039309;27;75622;-65
2021/04/07 08:08:11;;;;;;;;;;;12.00;35.80;;;;;;5041460;27;75691;-64
2021/04/07 08:10:38;;;;;;;;;;;12.10;35.80;;;;;;5040359;27;76527;-63
2021/04/07 08:13:10;;;;;;;;;;;12.20;35.50;;;;;;5039057;28;76197;-64
2021/04/07 08:15:36;;;;;;;;;;;12.20;35.20;;;;;;5039256;28;77079;-67
2021/04/07 08:18:02;;;;;;;;;;;12.30;35.00;;;;;;5040609;27;75816;-67
2021/04/07 08:20:28;;;;;;;;;;;12.30;35.10;;;;;;5039661;28;79558;-69
2021/04/07 08:22:54;;;;;;;;;;;12.40;35.00;;;;;;5039401;28;76672;-66
2021/04/07 08:25:20;;;;;;;;;;;12.50;35.10;;;;;;5038401;28;76819;-64
2021/04/07 08:27:49;;;;;;;;;;;12.50;35.10;;;;;;5039855;28;75810;-64
2021/04/07 08:30:14;;;;;;;;;;;12.70;35.00;;;;;;5040807;28;76458;-65
2021/04/07 08:32:43;;;;;;;;;;;12.80;34.60;;;;;;5039024;28;75995;-65
2021/04/07 08:35:09;;;;;;;;;;;12.90;34.40;;;;;;5037593;28;77408;-68
2021/04/07 08:37:35;;;;;;;;;;;12.90;34.40;;;;;;5040530;28;77066;-65
2021/04/07 08:40:11;;;;;;;;;;;12.90;34.20;;;;;;5038967;28;76052;-64
2021/04/07 08:42:38;;;;;;;;;;;12.90;34.40;;;;;;5038728;28;76807;-65
2021/04/07 08:45:05;;;;;;;;;;;13.00;34.00;;;;;;5037541;27;75888;-64
2021/04/07 08:47:42;;;;;;;;;;;13.20;34.00;;;;;;5039134;27;75673;-64
2021/04/07 08:50:08;;;;;;;;;;;13.20;33.80;;;;;;5038586;28;78061;-64
2021/04/07 08:52:44;;;;;;;;;;;13.40;34.20;;;;;;5038646;28;76092;-63
2021/04/07 08:55:14;;;;;;;;;;;13.50;33.40;;;;;;5040002;27;77269;-66
2021/04/07 08:57:40;;;;;;;;;;;13.60;33.50;;;;;;5039855;27;76432;-63
2021/04/07 09:00:16;;;;;;;;;;;13.70;33.20;;;;;;5038504;28;76650;-64
2021/04/07 09:02:51;;;;;;;;;;;13.80;33.10;;;;;;5039585;28;75647;-67
2021/04/07 09:05:27;;;;;;;;;;;13.90;32.90;;;;;;5039821;28;75933;-65
2021/04/07 09:07:54;;;;;;;;;;;14.00;33.00;;;;;;5040041;27;77359;-67
2021/04/07 09:10:21;;;;;;;;;;;14.10;32.70;;;;;;5039836;27;76913;-65
2021/04/07 09:12:48;;;;;;;;;;;14.20;32.00;;;;;;5039759;27;76277;-64
2021/04/07 09:15:21;;;;;;;;;;;14.30;32.10;;;;;;5038161;28;96014;-64
2021/04/07 09:17:50;;;;;;;;;;;14.40;32.30;;;;;;5038998;27;75600;-70
2021/04/07 09:20:51;;;;;;;;;;;14.50;32.20;;;;;;5037609;28;77790;-64
2021/04/07 09:23:21;;;;;;;;;;;14.80;32.10;;;;;;4959134;28;76670;-64
2021/04/07 09:25:51;;;;;;;;;;;15.00;32.00;;;;;;5027552;27;77019;-62
2021/04/07 09:28:16;;;;;;;;;;;15.20;31.60;;;;;;5038149;28;76486;-66
2021/04/07 09:30:46;;;;;;;;;;;15.40;31.00;;;;;;5039067;28;76961;-64
2021/04/07 09:33:13;;;;;;;;;;;15.60;30.70;;;;;;5039712;28;76175;-64
2021/04/07 09:35:50;;;;;;;;;;;15.70;30.60;;;;;;5035615;28;76943;-64
2021/04/07 09:38:16;;;;;;;;;;;15.80;29.20;;;;;;5037697;28;75992;-64
2021/04/07 09:40:41;;;;;;;;;;;15.90;29.90;;;;;;5039340;27;76567;-64
2021/04/07 09:43:07;;;;;;;;;;;16.10;29.50;;;;;;5038400;28;75889;-62
2021/04/07 09:45:32;;;;;;;;;;;16.40;29.30;;;;;;5037768;27;76330;-63
2021/04/07 09:48:00;;;;;;;;;;;16.70;29.30;;;;;;5037277;27;75912;-63
2021/04/07 09:50:29;;;;;;;;;;;16.90;28.00;;;;;;5038750;28;75622;-64
2021/04/07 09:52:55;;;;;;;;;;;17.00;27.90;;;;;;5039376;27;76220;-64
2021/04/07 09:55:21;;;;;;;;;;;17.20;27.70;;;;;;5038680;28;76208;-65
2021/04/07 09:58:00;;;;;;;;;;;17.40;27.00;;;;;;5036306;28;79801;-63
2021/04/07 10:00:30;;;;;;;;;;;17.60;27.00;;;;;;5038759;28;75857;-64
2021/04/07 10:02:56;;;;;;;;;;;17.80;26.70;;;;;;5038425;27;76474;-62
2021/04/07 10:05:39;;;;;;;;;;;18.00;26.80;;;;;;5038340;28;77378;-63
2021/04/07 10:08:12;;;;;;;;;;;18.20;26.30;;;;;;5038945;28;76434;-64
2021/04/07 10:10:37;;;;;;;;;;;18.40;26.30;;;;;;5037438;28;78276;-63
2021/04/07 10:13:03;;;;;;;;;;;18.60;26.50;;;;;;5038399;28;76699;-63
2021/04/07 10:15:29;;;;;;;;;;;18.70;24.60;;;;;;5036392;28;77096;-64
2021/04/07 10:17:54;;;;;;;;;;;18.60;25.30;;;;;;5035635;28;77967;-63
2021/04/07 10:20:26;;;;;;;;;;;18.80;26.00;;;;;;5038002;27;75747;-63
2021/04/07 10:22:52;;;;;;;;;;;19.00;25.10;;;;;;5036447;28;78207;-63
2021/04/07 10:25:22;;;;;;;;;;;19.30;25.20;;;;;;5036242;28;77124;-63
2021/04/07 10:27:49;;;;;;;;;;;19.50;24.50;;;;;;5037858;28;76373;-64
2021/04/07 10:30:15;;;;;;;;;;;19.70;23.10;;;;;;5037754;28;76264;-64
2021/04/07 10:32:42;;;;;;;;;;;19.80;23.80;;;;;;5038308;27;75774;-65
2021/04/07 10:35:29;;;;;;;;;;;20.10;23.50;;;;;;5037685;28;76106;-64
2021/04/07 10:38:04;;;;;;;;;;;20.30;21.80;;;;;;5037457;28;77056;-64
2021/04/07 10:40:31;;;;;;;;;;;20.50;23.20;;;;;;5034435;28;77329;-63
2021/04/07 10:42:57;;;;;;;;;;;20.90;23.20;;;;;;5037377;28;76361;-64
2021/04/07 10:45:24;;;;;;;;;;;21.20;23.00;;;;;;5037568;28;76166;-63
2021/04/07 10:47:50;;;;;;;;;;;21.50;22.20;;;;;;5038131;27;76390;-64
2021/04/07 10:50:16;;;;;;;;;;;21.90;22.30;;;;;;5038041;27;75025;-65
2021/04/07 10:52:43;;;;;;;;;;;21.90;21.80;;;;;;5037651;28;75789;-66
2021/04/07 10:55:10;;;;;;;;;;;22.30;21.00;;;;;;5037851;27;75087;-63
2021/04/07 10:57:37;;;;;;;;;;;22.80;21.50;;;;;;5036283;28;78418;-64
2021/04/07 11:00:07;;;;;;;;;;;23.30;21.00;;;;;;5038029;28;75977;-65
2021/04/07 11:02:40;;;;;;;;;;;23.70;20.00;;;;;;5037572;27;75868;-63
2021/04/07 11:05:10;;;;;;;;;;;23.80;20.30;;;;;;5037103;27;76704;-64
2021/04/07 11:07:35;;;;;;;;;;;24.10;19.20;;;;;;5035990;28;76674;-64
2021/04/07 11:10:01;;;;;;;;;;;24.60;19.10;;;;;;5036364;28;77960;-63
2021/04/07 11:12:27;;;;;;;;;;;25.40;19.40;;;;;;5037868;28;75652;-66
2021/04/07 11:14:52;;;;;;;;;;;26.30;18.70;;;;;;5037690;27;76655;-64
2021/04/07 11:17:21;;;;;;;;;;;27.10;18.20;;;;;;5037561;28;76518;-65
2021/04/07 11:19:47;;;;;;;;;;;28.00;17.30;;;;;;5037507;27;76936;-65
2021/04/07 11:22:12;;;;;;;;;;;29.00;17.20;;;;;;5037527;27;76282;-66
2021/04/07 11:24:38;;;;;;;;;;;29.90;16.80;;;;;;5035684;27;76658;-64
2021/04/07 11:27:08;;;;;;;;;;;31.00;15.60;;;;;;5034825;28;78301;-65
2021/04/07 11:29:37;;;;;;;;;;;31.90;15.30;;;;;;5038761;27;76339;-65
2021/04/07 11:32:03;;;;;;;;;;;32.80;14.90;;;;;;5040689;28;75723;-65
2021/04/07 11:34:40;;;;;;;;;;;33.70;14.60;;;;;;5040953;28;75765;-66
2021/04/07 11:39:35;;;;;;;;;;;35.50;13.70;;;;;;5038026;27;76877;-65
2021/04/07 11:42:08;;;;;;;;;;;36.30;13.20;;;;;;5023374;28;78013;-64
2021/04/07 11:44:34;;;;;;;;;;;37.00;12.70;;;;;;5039127;28;77143;-65
2021/04/07 11:47:02;;;;;;;;;;;37.40;12.50;;;;;;5038650;28;76399;-65
2021/04/07 11:49:28;;;;;;;;;;;38.10;12.50;;;;;;5039629;27;76556;-65
2021/04/07 11:51:53;;;;;;;;;;;39.00;11.70;;;;;;5039660;28;76644;-64
2021/04/07 11:54:19;;;;;;;;;;;39.50;11.80;;;;;;5041034;28;76379;-65
2021/04/07 11:56:46;;;;;;;;;;;40.00;11.70;;;;;;5040229;28;75620;-66
2021/04/07 11:59:21;;;;;;;;;;;40.50;11.30;;;;;;5040563;28;76485;-66
2021/04/07 12:01:48;;;;;;;;;;;41.20;10.90;;;;;;5038702;28;77241;-66
2021/04/07 12:04:13;;;;;;;;;;;41.80;10.50;;;;;;5040590;28;76201;-66
2021/04/07 12:06:39;;;;;;;;;;;42.10;10.60;;;;;;5040260;27;77634;-66
2021/04/07 12:09:05;;;;;;;;;;;42.40;10.60;;;;;;5039219;28;77448;-66
2021/04/07 12:11:31;;;;;;;;;;;42.40;10.10;;;;;;5042474;27;76673;-66
2021/04/07 12:13:57;;;;;;;;;;;42.50;10.20;;;;;;5039670;28;78454;-65
2021/04/07 12:16:22;;;;;;;;;;;42.60;9.80;;;;;;5038233;28;77156;-66
2021/04/07 12:18:48;;;;;;;;;;;41.10;10.20;;;;;;5038322;28;75992;-67
2021/04/07 12:21:14;;;;;;;;;;;37.70;11.30;;;;;;5040248;28;75772;-66
2021/04/07 12:23:40;;;;;;;;;;;35.00;12.50;;;;;;5038299;28;78297;-65
2021/04/07 12:26:06;;;;;;;;;;;33.20;13.30;;;;;;5040262;27;76045;-65
2021/04/07 12:28:31;;;;;;;;;;;31.90;14.10;;;;;;5037961;28;78300;-64
2021/04/07 12:30:57;;;;;;;;;;;30.40;14.40;;;;;;5038233;28;78420;-66
2021/04/07 12:33:25;;;;;;;;;;;29.40;15.10;;;;;;5039695;28;76506;-66
2021/04/07 12:36:05;;;;;;;;;;;28.50;15.90;;;;;;5037848;28;76558;-65
2021/04/07 12:38:32;;;;;;;;;;;28.20;16.40;;;;;;5021490;28;80159;-65
2021/04/07 12:40:59;;;;;;;;;;;28.50;16.60;;;;;;5039801;27;76473;-70
2021/04/07 12:43:24;;;;;;;;;;;28.90;15.80;;;;;;5039868;27;76148;-68
2021/04/07 12:45:50;;;;;;;;;;;31.30;15.50;;;;;;5039871;27;76468;-66
2021/04/07 12:48:16;;;;;;;;;;;35.00;13.60;;;;;;5039549;28;76322;-67
2021/04/07 12:50:42;;;;;;;;;;;38.10;12.00;;;;;;5039918;27;76491;-67
2021/04/07 12:53:07;;;;;;;;;;;40.40;10.50;;;;;;5038101;28;76745;-67
2021/04/07 12:55:33;;;;;;;;;;;41.50;10.80;;;;;;5037941;28;78355;-68
2021/04/07 12:57:59;;;;;;;;;;;42.50;9.50;;;;;;5039348;28;75923;-65
2021/04/07 13:00:26;;;;;;;;;;;41.90;9.70;;;;;;5039664;28;76125;-64
2021/04/07 13:02:51;;;;;;;;;;;40.50;10.20;;;;;;5038211;28;78169;-66
2021/04/07 13:05:17;;;;;;;;;;;37.40;10.30;;;;;;5038741;27;75560;-65
2021/04/07 13:07:43;;;;;;;;;;;34.40;12.00;;;;;;5039489;28;75650;-66
2021/04/07 13:10:09;;;;;;;;;;;32.20;13.50;;;;;;5037963;28;77106;-65
2021/04/07 13:12:34;;;;;;;;;;;30.70;14.60;;;;;;5038112;28;76382;-64
2021/04/07 13:15:00;;;;;;;;;;;29.70;15.20;;;;;;5039432;28;76145;-65
2021/04/07 13:17:25;;;;;;;;;;;29.10;15.90;;;;;;5039351;27;75828;-66
2021/04/07 13:19:54;;;;;;;;;;;29.00;15.90;;;;;;5038445;28;76708;-65
2021/04/07 13:22:19;;;;;;;;;;;28.50;15.90;;;;;;5036217;28;77837;-65
2021/04/07 13:24:45;;;;;;;;;;;28.20;16.00;;;;;;5039158;27;76295;-66
2021/04/07 13:27:11;;;;;;;;;;;27.90;16.30;;;;;;5038765;28;76149;-66
2021/04/07 13:29:37;;;;;;;;;;;27.40;16.00;;;;;;5038729;28;75872;-65
2021/04/07 13:32:06;;;;;;;;;;;26.90;16.30;;;;;;5040150;27;75766;-64
2021/04/07 13:37:16;;;;;;;;;;;26.20;16.70;;;;;;5049975;27;74394;-66
2021/04/07 13:39:51;;;;;;;;;;;26.80;17.00;;;;;;5053191;27;74469;-70
2021/04/07 13:45:01;;;;;;;;;;;27.50;16.60;;;;;;5052777;28;74828;-65
2021/04/07 13:47:27;;;;;;;;;;;27.90;16.10;;;;;;5051296;28;75430;-67
2021/04/07 13:49:52;;;;;;;;;;;29.00;16.00;;;;;;5052522;27;75559;-65
2021/04/07 13:52:18;;;;;;;;;;;30.40;15.00;;;;;;5050971;27;75896;-68
2021/04/07 13:54:44;;;;;;;;;;;30.40;15.10;;;;;;5052387;27;74683;-67
2021/04/07 13:57:43;;;;;;;;;;;29.70;15.00;;;;;;5050994;28;74613;-67
2021/04/07 14:00:04;;;;;;;;;;;29.10;15.60;;;;;;5050426;27;75084;-65
2021/04/07 14:02:33;;;;;;;;;;;28.90;15.80;;;;;;5052558;27;77298;-67
2021/04/07 14:04:59;;;;;;;;;;;28.70;16.20;;;;;;5052602;27;75405;-65
2021/04/07 14:07:25;;;;;;;;;;;29.10;16.00;;;;;;5051174;28;76625;-65
2021/04/07 14:09:51;;;;;;;;;;;29.70;15.90;;;;;;5050939;28;75969;-66
2021/04/07 14:12:27;;;;;;;;;;;30.50;15.60;;;;;;5052445;27;74421;-66
2021/04/07 14:14:53;;;;;;;;;;;30.80;15.50;;;;;;5052779;27;75179;-65
2021/04/07 14:17:18;;;;;;;;;;;30.30;15.70;;;;;;5052816;27;74534;-67
2021/04/07 14:19:44;;;;;;;;;;;30.10;16.00;;;;;;5052657;27;74881;-66
2021/04/07 14:22:09;;;;;;;;;;;30.10;16.00;;;;;;5052403;28;75281;-66
2021/04/07 14:24:35;;;;;;;;;;;30.30;15.80;;;;;;5052489;28;74564;-68